createdAt,value
2018-12-10T18:24:43.255Z,57.23
2018-12-10T18:25:42.834Z,56.67
2018-12-10T18:26:51.180Z,56.24
2018-12-10T18:27:42.831Z,56.04
2018-12-10T18:28:42.682Z,55.74
2018-12-10T18:29:42.949Z,54.60
2018-12-10T18:30:42.566Z,54.30
2018-12-10T18:31:42.632Z,53.88
2018-12-10T18:32:42.441Z,54.28
2018-12-10T18:33:42.372Z,54.08
2018-12-10T18:36:00.489Z,41.37
2018-12-10T18:37:00.395Z,45.08
2018-12-10T18:38:00.404Z,49.03
2018-12-10T18:39:00.382Z,52.94
2018-12-10T18:40:00.450Z,56.66
2018-12-10T18:41:00.355Z,59.96
2018-12-10T18:42:00.362Z,62.74
2018-12-10T18:43:00.330Z,66.35
2018-12-10T18:44:00.324Z,67.33
2018-12-10T18:45:00.307Z,69.46
2018-12-10T18:46:00.297Z,71.34
2018-12-10T18:47:00.307Z,74.05
2018-12-10T18:48:09.486Z,74.60
2018-12-10T18:49:00.264Z,76.08
2018-12-10T18:50:00.252Z,75.91
2018-12-10T18:51:00.242Z,76.21
2018-12-10T18:52:00.250Z,76.98
2018-12-10T18:53:00.224Z,78.05
2018-12-10T18:54:00.231Z,78.87
2018-12-10T18:55:09.539Z,78.77
2018-12-10T18:56:00.195Z,79.52
2018-12-10T18:57:00.453Z,79.63
2018-12-10T18:58:01.574Z,79.73
2018-12-10T18:59:00.161Z,79.63
2018-12-10T19:00:00.898Z,79.97
2018-12-10T19:01:00.138Z,80.49
2018-12-10T19:02:00.145Z,80.08
2018-12-10T19:03:00.113Z,80.39
2018-12-10T19:04:00.102Z,80.60
2018-12-10T19:05:00.089Z,80.80
2018-12-10T19:06:00.078Z,80.84
2018-12-10T19:07:00.089Z,80.74
2018-12-10T19:08:00.172Z,81.56
2018-12-10T19:09:00.665Z,81.15
2018-12-10T19:10:00.044Z,82.39
2018-12-10T19:11:00.025Z,82.18
2018-12-10T19:12:00.032Z,81.77
2018-12-10T19:13:09.864Z,82.39
2018-12-10T19:13:59.991Z,81.60
2018-12-10T19:14:59.978Z,82.12
2018-12-10T19:15:59.971Z,82.08
2018-12-10T19:17:00.010Z,82.12
2018-12-10T19:17:59.953Z,82.12
2018-12-10T19:18:59.989Z,82.12
2018-12-10T19:19:59.939Z,82.53
2018-12-10T19:20:59.913Z,82.12
2018-12-10T19:21:59.946Z,82.53
2018-12-10T19:22:59.893Z,82.22
2018-12-10T19:24:00.105Z,82.22
2018-12-10T19:24:59.870Z,82.12
2018-12-10T19:25:59.872Z,82.67
2018-12-10T19:26:59.876Z,82.78
2018-12-10T19:27:59.843Z,83.19
2018-12-10T19:28:59.836Z,82.98
2018-12-10T19:29:59.832Z,82.78
2018-12-10T19:30:59.802Z,82.36
2018-12-10T19:31:59.820Z,83.09
2018-12-10T19:32:59.788Z,83.29
2018-12-10T19:34:03.534Z,83.50
2018-12-10T19:34:59.763Z,84.01
2018-12-10T19:35:59.794Z,83.71
2018-12-10T19:36:59.761Z,84.22
2018-12-10T19:37:59.732Z,83.91
2018-12-10T19:38:59.714Z,83.95
2018-12-10T19:39:59.709Z,83.19
2018-12-10T19:40:59.691Z,83.75
2018-12-10T19:41:59.704Z,82.98
2018-12-10T19:42:59.672Z,83.29
2018-12-10T19:43:59.677Z,84.12
2018-12-10T19:45:09.374Z,82.57
2018-12-10T19:45:59.639Z,82.81
2018-12-10T19:46:59.682Z,82.67
2018-12-10T19:47:59.628Z,82.57
2018-12-10T19:48:59.754Z,82.67
2018-12-10T19:49:59.618Z,83.19
2018-12-10T19:51:53.932Z,82.81
2018-12-10T19:52:53.901Z,82.71
2018-12-10T19:53:53.888Z,82.92
2018-12-10T19:54:53.875Z,83.02
2018-12-10T19:55:53.872Z,82.60
2018-12-10T19:56:53.874Z,82.92
2018-12-10T19:57:53.847Z,82.71
2018-12-10T19:58:53.838Z,82.81
2018-12-10T19:59:53.821Z,83.85
2018-12-10T20:00:53.811Z,83.54
2018-12-10T20:01:53.825Z,83.78
2018-12-10T20:02:53.786Z,84.09
2018-12-10T20:03:53.774Z,83.75
2018-12-10T20:04:53.767Z,84.41
2018-12-10T20:06:50.342Z,84.61
2018-12-10T20:07:50.289Z,84.34
2018-12-10T20:08:50.279Z,84.09
2018-12-10T20:09:50.270Z,84.34
2018-12-10T20:10:50.255Z,83.89
2018-12-10T20:11:50.265Z,84.20
2018-12-10T20:12:50.235Z,84.09
2018-12-10T20:13:50.230Z,83.68
2018-12-10T20:14:50.274Z,84.92
2018-12-10T20:15:50.199Z,84.72
2018-12-10T20:16:50.216Z,84.61
2018-12-10T20:17:50.195Z,84.61
2018-12-10T20:18:50.184Z,84.30
2018-12-10T20:19:50.157Z,84.51
2018-12-10T20:20:50.146Z,84.72
2018-12-10T20:21:50.241Z,84.51
2018-12-10T20:22:50.125Z,84.09
2018-12-10T20:23:50.114Z,83.99
2018-12-10T20:24:50.103Z,83.68
2018-12-10T20:25:50.097Z,84.09
2018-12-10T20:26:50.193Z,84.09
2018-12-10T20:27:50.136Z,84.09
2018-12-10T20:28:50.104Z,84.92
2018-12-10T20:29:50.056Z,84.99
2018-12-10T20:30:50.070Z,85.09
2018-12-10T20:31:50.046Z,83.64
2018-12-10T20:32:50.033Z,83.54
2018-12-10T20:33:50.024Z,83.85
2018-12-10T20:34:50.035Z,84.27
2018-12-10T20:35:50.045Z,83.54
2018-12-10T20:36:49.985Z,83.02
2018-12-10T20:37:49.995Z,83.23
2018-12-10T20:38:49.948Z,83.64
2018-12-10T20:39:50.117Z,84.06
2018-12-10T20:40:50.215Z,83.02
2018-12-10T20:41:59.170Z,83.54
2018-12-10T20:42:49.927Z,83.85
2018-12-10T20:43:49.895Z,83.95
2018-12-10T20:44:49.893Z,83.75
2018-12-10T20:45:49.867Z,83.12
2018-12-10T20:46:49.859Z,82.26
2018-12-10T20:47:49.871Z,82.67
2018-12-10T20:48:49.844Z,82.60
2018-12-10T20:49:49.943Z,83.12
2018-12-10T20:50:49.819Z,83.91
2018-12-10T20:51:49.813Z,83.91
2018-12-10T20:52:49.812Z,82.26
2018-12-10T20:53:49.780Z,82.46
2018-12-10T20:54:49.774Z,83.09
2018-12-10T20:55:49.762Z,82.67
2018-12-10T20:56:49.765Z,83.91
2018-12-10T20:57:49.755Z,83.40
2018-12-10T20:58:49.732Z,83.09
2018-12-10T20:59:49.967Z,82.78
2018-12-10T21:00:49.711Z,82.78
2018-12-10T21:01:49.707Z,82.98
2018-12-10T21:02:49.707Z,82.46
2018-12-10T21:03:49.677Z,82.88
2018-12-10T21:04:49.662Z,82.78
2018-12-10T21:05:49.648Z,82.46
2018-12-10T21:06:49.681Z,82.98
2018-12-10T21:07:49.646Z,84.01
2018-12-10T21:08:49.613Z,83.61
2018-12-10T21:09:49.603Z,83.64
2018-12-10T21:10:49.590Z,84.01
2018-12-10T21:11:49.583Z,84.33
2018-12-10T21:12:49.596Z,84.64
2018-12-10T21:13:49.563Z,84.01
2018-12-10T21:14:49.554Z,83.91
2018-12-10T21:15:49.540Z,84.22
2018-12-10T21:16:49.524Z,84.33
2018-12-10T21:17:49.532Z,84.64
2018-12-10T21:18:49.503Z,84.43
2018-12-10T21:19:49.490Z,84.22
2018-12-10T21:20:49.487Z,84.01
2018-12-10T21:21:49.476Z,84.01
2018-12-10T21:22:49.480Z,84.12
2018-12-10T21:23:49.450Z,83.91
2018-12-10T21:24:49.446Z,84.22
2018-12-10T21:25:49.424Z,83.91
2018-12-10T21:26:49.426Z,84.74
2018-12-10T21:27:49.461Z,84.22
2018-12-10T21:28:49.442Z,84.01
2018-12-10T21:29:49.391Z,84.01
2018-12-10T21:30:49.378Z,84.53
2018-12-10T21:31:49.362Z,84.33
2018-12-10T21:32:49.368Z,84.74
2018-12-10T21:33:49.355Z,84.43
2018-12-10T21:34:49.385Z,84.33
2018-12-10T21:35:49.318Z,84.64
2018-12-10T21:36:49.304Z,83.91
2018-12-10T21:37:49.319Z,84.12
2018-12-10T21:38:49.387Z,84.64
2018-12-10T21:39:49.281Z,84.95
2018-12-10T21:40:49.312Z,84.74
2018-12-10T21:41:49.263Z,84.53
2018-12-10T21:42:49.261Z,83.91
2018-12-10T21:43:49.248Z,84.22
2018-12-10T21:44:49.215Z,83.71
2018-12-10T21:45:49.205Z,84.12
2018-12-10T21:46:49.195Z,84.33
2018-12-10T21:47:49.219Z,83.71
2018-12-10T21:48:49.179Z,84.33
2018-12-10T21:49:49.163Z,83.87
2018-12-10T21:50:49.151Z,83.40
2018-12-10T21:51:49.142Z,84.01
2018-12-10T21:52:49.174Z,84.19
2018-12-10T21:53:49.119Z,83.56
2018-12-10T21:54:49.108Z,83.98
2018-12-10T21:55:49.112Z,83.98
2018-12-10T21:56:49.082Z,83.77
2018-12-10T21:57:49.095Z,84.29
2018-12-10T21:58:49.058Z,83.71
2018-12-10T21:59:49.056Z,83.98
2018-12-10T22:00:49.079Z,83.87
2018-12-10T22:01:49.025Z,82.84
2018-12-10T22:02:49.052Z,82.74
2018-12-10T22:03:49.013Z,82.43
2018-12-10T22:04:48.993Z,82.84
2018-12-10T22:05:48.989Z,82.53
2018-12-10T22:06:49.017Z,81.29
2018-12-10T22:07:48.959Z,82.22
2018-12-10T22:08:48.970Z,82.22
2018-12-10T22:09:48.949Z,82.36
2018-12-10T22:10:48.932Z,82.64
2018-12-10T22:11:48.925Z,82.22
2018-12-10T22:12:48.903Z,82.74
2018-12-10T22:13:48.915Z,82.43
2018-12-10T22:14:48.880Z,82.53
2018-12-10T22:15:48.871Z,82.43
2018-12-10T22:16:48.887Z,82.32
2018-12-10T22:17:48.883Z,82.12
2018-12-10T22:18:48.862Z,82.43
2018-12-10T22:19:48.830Z,81.91
2018-12-10T22:20:48.831Z,81.91
2018-12-10T22:21:48.802Z,82.32
2018-12-10T22:22:48.839Z,82.74
2018-12-10T22:23:48.805Z,82.12
2018-12-10T22:24:48.773Z,81.98
2018-12-10T22:25:48.780Z,82.32
2018-12-10T22:26:48.809Z,82.22
2018-12-10T22:27:48.770Z,82.22
2018-12-10T22:28:48.749Z,82.84
2018-12-10T22:29:48.719Z,83.15
2018-12-10T22:30:48.713Z,82.32
2018-12-10T22:31:48.692Z,82.74
2018-12-10T22:32:48.728Z,82.43
2018-12-10T22:33:48.695Z,82.53
2018-12-10T22:34:48.687Z,82.53
2018-12-10T22:35:48.651Z,83.15
2018-12-10T22:36:48.641Z,83.67
2018-12-10T22:37:48.634Z,84.39
2018-12-10T22:38:48.641Z,84.08
2018-12-10T22:39:48.661Z,83.98
2018-12-10T22:40:48.598Z,82.95
2018-12-10T22:41:48.584Z,83.98
2018-12-10T22:42:48.599Z,83.46
2018-12-10T22:43:48.609Z,82.95
2018-12-10T22:44:48.551Z,82.88
2018-12-10T22:45:48.548Z,82.64
2018-12-10T22:46:48.525Z,82.74
2018-12-10T22:47:48.519Z,83.98
2018-12-10T22:48:48.528Z,83.05
2018-12-10T22:49:48.491Z,83.05
2018-12-10T22:50:48.481Z,83.25
2018-12-10T22:51:48.510Z,83.67
2018-12-10T22:52:48.459Z,83.09
2018-12-10T22:53:48.472Z,82.98
2018-12-10T22:54:48.438Z,84.22
2018-12-10T22:55:48.426Z,83.87
2018-12-10T22:56:48.433Z,83.98
2018-12-10T22:57:48.406Z,83.46
2018-12-10T22:58:48.416Z,83.40
2018-12-10T22:59:48.381Z,83.67
2018-12-10T23:00:48.369Z,83.98
2018-12-10T23:01:48.361Z,83.46
2018-12-10T23:02:48.363Z,83.98
2018-12-10T23:03:48.366Z,83.77
2018-12-10T23:04:48.329Z,83.56
2018-12-10T23:05:48.315Z,83.87
2018-12-10T23:06:48.303Z,84.19
2018-12-10T23:07:48.307Z,83.98
2018-12-10T23:08:48.303Z,83.87
2018-12-10T23:09:48.269Z,83.56
2018-12-10T23:10:48.261Z,83.56
2018-12-10T23:11:48.247Z,84.08
2018-12-10T23:12:48.244Z,84.33
2018-12-10T23:13:48.247Z,85.68
2018-12-10T23:14:48.221Z,85.42
2018-12-10T23:15:48.203Z,84.74
2018-12-10T23:16:48.193Z,84.81
2018-12-10T23:17:48.183Z,85.22
2018-12-10T23:18:48.188Z,85.47
2018-12-10T23:19:48.188Z,85.22
2018-12-10T23:20:48.153Z,85.36
2018-12-10T23:21:48.195Z,84.74
2018-12-10T23:22:48.128Z,84.33
2018-12-10T23:23:48.139Z,84.84
2018-12-10T23:24:48.121Z,84.84
2018-12-10T23:25:48.117Z,84.84
2018-12-10T23:26:48.085Z,84.74
2018-12-10T23:27:48.073Z,85.26
2018-12-10T23:28:48.122Z,84.50
2018-12-10T23:29:48.053Z,85.16
2018-12-10T23:30:48.036Z,85.22
2018-12-10T23:31:48.027Z,84.64
2018-12-10T23:32:48.015Z,84.29
2018-12-10T23:33:48.047Z,84.53
2018-12-10T23:34:48.031Z,84.91
2018-12-10T23:35:47.980Z,84.60
2018-12-10T23:36:47.968Z,84.70
2018-12-10T23:37:47.979Z,85.22
2018-12-10T23:38:47.946Z,84.60
2018-12-10T23:39:47.955Z,84.19
2018-12-10T23:40:47.931Z,84.12
2018-12-10T23:41:47.917Z,84.43
2018-12-10T23:42:47.909Z,85.36
2018-12-10T23:43:47.896Z,84.50
2018-12-10T23:44:47.903Z,85.16
2018-12-10T23:45:47.873Z,84.33
2018-12-10T23:46:47.869Z,84.12
2018-12-10T23:47:47.846Z,84.81
2018-12-10T23:48:47.846Z,84.50
2018-12-10T23:49:47.865Z,84.19
2018-12-10T23:50:47.813Z,83.67
2018-12-10T23:51:47.803Z,83.67
2018-12-10T23:52:47.790Z,83.98
2018-12-10T23:53:47.781Z,83.67
2018-12-10T23:54:47.791Z,84.81
2018-12-10T23:55:47.758Z,85.02
2018-12-10T23:56:47.746Z,84.29
2018-12-10T23:57:47.738Z,83.94
2018-12-10T23:58:47.726Z,83.98
2018-12-10T23:59:47.736Z,82.74
